sensor_id;sensor_type;location;lat;lon;timestamp;temperature;humidity
11961;DHT22;6040;49.358;11.140;2022-07-22T00:01:35;17.80;98.80
11961;DHT22;6040;49.358;11.140;2022-07-22T00:04:03;17.70;99.00
11961;DHT22;6040;49.358;11.140;2022-07-22T00:06:31;17.70;99.40
11961;DHT22;6040;49.358;11.140;2022-07-22T00:08:57;17.60;99.20
11961;DHT22;6040;49.358;11.140;2022-07-22T00:11:24;17.60;99.10
11961;DHT22;6040;49.358;11.140;2022-07-22T00:13:51;17.70;98.90
11961;DHT22;6040;49.358;11.140;2022-07-22T00:16:18;17.70;99.20
11961;DHT22;6040;49.358;11.140;2022-07-22T00:18:45;17.70;98.90
11961;DHT22;6040;49.358;11.140;2022-07-22T00:21:13;17.70;98.80
11961;DHT22;6040;49.358;11.140;2022-07-22T00:23:40;17.70;99.00
11961;DHT22;6040;49.358;11.140;2022-07-22T00:26:07;17.60;99.30
11961;DHT22;6040;49.358;11.140;2022-07-22T00:28:34;17.50;99.10
11961;DHT22;6040;49.358;11.140;2022-07-22T00:31:01;17.50;99.00
11961;DHT22;6040;49.358;11.140;2022-07-22T00:33:28;17.40;99.30
11961;DHT22;6040;49.358;11.140;2022-07-22T00:35:54;17.40;99.40
11961;DHT22;6040;49.358;11.140;2022-07-22T00:38:23;17.30;99.50
11961;DHT22;6040;49.358;11.140;2022-07-22T00:40:50;17.30;99.70
11961;DHT22;6040;49.358;11.140;2022-07-22T00:43:16;17.30;99.80
11961;DHT22;6040;49.358;11.140;2022-07-22T00:45:43;17.20;99.70
11961;DHT22;6040;49.358;11.140;2022-07-22T00:48:10;17.30;99.50
11961;DHT22;6040;49.358;11.140;2022-07-22T00:50:37;17.30;99.50
11961;DHT22;6040;49.358;11.140;2022-07-22T00:53:04;17.30;99.80
11961;DHT22;6040;49.358;11.140;2022-07-22T00:55:34;17.20;99.90
11961;DHT22;6040;49.358;11.140;2022-07-22T00:58:01;17.10;99.90
11961;DHT22;6040;49.358;11.140;2022-07-22T01:00:28;17.10;99.90
11961;DHT22;6040;49.358;11.140;2022-07-22T01:02:55;17.00;99.90
11961;DHT22;6040;49.358;11.140;2022-07-22T01:05:22;17.00;99.90
11961;DHT22;6040;49.358;11.140;2022-07-22T01:07:49;17.00;99.90
11961;DHT22;6040;49.358;11.140;2022-07-22T01:10:16;17.00;99.90
11961;DHT22;6040;49.358;11.140;2022-07-22T01:12:44;17.00;99.90
11961;DHT22;6040;49.358;11.140;2022-07-22T01:15:11;16.90;99.90
11961;DHT22;6040;49.358;11.140;2022-07-22T01:17:38;16.90;99.90
11961;DHT22;6040;49.358;11.140;2022-07-22T01:20:08;16.90;99.90
11961;DHT22;6040;49.358;11.140;2022-07-22T01:22:35;16.90;99.90
11961;DHT22;6040;49.358;11.140;2022-07-22T01:25:02;16.80;99.90
11961;DHT22;6040;49.358;11.140;2022-07-22T01:27:29;16.80;99.90
11961;DHT22;6040;49.358;11.140;2022-07-22T01:29:56;16.70;99.90
11961;DHT22;6040;49.358;11.140;2022-07-22T01:32:23;16.70;99.90
11961;DHT22;6040;49.358;11.140;2022-07-22T01:34:49;16.60;99.90
11961;DHT22;6040;49.358;11.140;2022-07-22T01:37:17;16.60;99.90
11961;DHT22;6040;49.358;11.140;2022-07-22T01:39:44;16.60;99.90
11961;DHT22;6040;49.358;11.140;2022-07-22T01:42:12;16.60;99.90
11961;DHT22;6040;49.358;11.140;2022-07-22T01:44:39;16.60;99.90
11961;DHT22;6040;49.358;11.140;2022-07-22T01:47:06;16.60;99.90
11961;DHT22;6040;49.358;11.140;2022-07-22T01:49:33;16.50;99.90
11961;DHT22;6040;49.358;11.140;2022-07-22T01:52:01;16.50;99.90
11961;DHT22;6040;49.358;11.140;2022-07-22T01:54:29;16.50;99.90
11961;DHT22;6040;49.358;11.140;2022-07-22T01:56:56;16.50;99.90
11961;DHT22;6040;49.358;11.140;2022-07-22T01:59:23;16.50;99.90
11961;DHT22;6040;49.358;11.140;2022-07-22T02:01:50;16.50;99.90
11961;DHT22;6040;49.358;11.140;2022-07-22T02:04:17;16.50;99.90
11961;DHT22;6040;49.358;11.140;2022-07-22T02:06:43;16.40;99.90
11961;DHT22;6040;49.358;11.140;2022-07-22T02:09:10;16.40;99.90
11961;DHT22;6040;49.358;11.140;2022-07-22T02:11:39;16.40;99.90
11961;DHT22;6040;49.358;11.140;2022-07-22T02:14:06;16.40;99.90
11961;DHT22;6040;49.358;11.140;2022-07-22T02:16:32;16.40;99.90
11961;DHT22;6040;49.358;11.140;2022-07-22T02:18:59;16.40;99.90
11961;DHT22;6040;49.358;11.140;2022-07-22T02:21:26;16.30;99.90
11961;DHT22;6040;49.358;11.140;2022-07-22T02:23:53;16.30;99.90
11961;DHT22;6040;49.358;11.140;2022-07-22T02:26:20;16.30;99.90
11961;DHT22;6040;49.358;11.140;2022-07-22T02:28:48;16.30;99.90
11961;DHT22;6040;49.358;11.140;2022-07-22T02:31:15;16.20;99.90
11961;DHT22;6040;49.358;11.140;2022-07-22T02:33:42;16.20;99.90
11961;DHT22;6040;49.358;11.140;2022-07-22T02:36:09;16.20;99.90
11961;DHT22;6040;49.358;11.140;2022-07-22T02:38:36;16.20;99.90
11961;DHT22;6040;49.358;11.140;2022-07-22T02:41:03;16.10;99.90
11961;DHT22;6040;49.358;11.140;2022-07-22T02:43:30;16.10;99.90
11961;DHT22;6040;49.358;11.140;2022-07-22T02:45:58;16.10;99.90
11961;DHT22;6040;49.358;11.140;2022-07-22T02:48:25;16.10;99.90
11961;DHT22;6040;49.358;11.140;2022-07-22T02:50:52;16.00;99.90
11961;DHT22;6040;49.358;11.140;2022-07-22T02:53:18;15.90;99.90
11961;DHT22;6040;49.358;11.140;2022-07-22T02:55:45;15.90;99.90
11961;DHT22;6040;49.358;11.140;2022-07-22T02:58:12;15.90;99.90
11961;DHT22;6040;49.358;11.140;2022-07-22T03:00:39;15.80;99.90
11961;DHT22;6040;49.358;11.140;2022-07-22T03:03:07;15.70;99.90
11961;DHT22;6040;49.358;11.140;2022-07-22T03:05:34;15.70;99.90
11961;DHT22;6040;49.358;11.140;2022-07-22T03:08:01;15.70;99.90
11961;DHT22;6040;49.358;11.140;2022-07-22T03:10:28;15.60;99.90
11961;DHT22;6040;49.358;11.140;2022-07-22T03:12:55;15.60;99.90
11961;DHT22;6040;49.358;11.140;2022-07-22T03:15:21;15.60;99.90
11961;DHT22;6040;49.358;11.140;2022-07-22T03:17:48;15.50;99.90
11961;DHT22;6040;49.358;11.140;2022-07-22T03:20:16;17.50;99.90
11961;DHT22;6040;49.358;11.140;2022-07-22T03:22:43;15.50;99.90
11961;DHT22;6040;49.358;11.140;2022-07-22T03:25:10;15.50;99.90
11961;DHT22;6040;49.358;11.140;2022-07-22T03:27:37;15.40;99.90
11961;DHT22;6040;49.358;11.140;2022-07-22T03:30:05;15.40;99.90
11961;DHT22;6040;49.358;11.140;2022-07-22T03:32:32;15.40;99.90
11961;DHT22;6040;49.358;11.140;2022-07-22T03:34:59;15.40;99.90
11961;DHT22;6040;49.358;11.140;2022-07-22T03:37:27;16.20;99.90
11961;DHT22;6040;49.358;11.140;2022-07-22T03:39:54;16.10;99.90
11961;DHT22;6040;49.358;11.140;2022-07-22T03:42:21;15.40;99.90
11961;DHT22;6040;49.358;11.140;2022-07-22T03:44:48;15.40;99.90
11961;DHT22;6040;49.358;11.140;2022-07-22T03:47:18;15.40;99.90
11961;DHT22;6040;49.358;11.140;2022-07-22T03:49:45;15.30;99.90
11961;DHT22;6040;49.358;11.140;2022-07-22T03:52:12;15.40;99.90
11961;DHT22;6040;49.358;11.140;2022-07-22T03:54:41;15.40;99.90
11961;DHT22;6040;49.358;11.140;2022-07-22T03:57:08;15.40;99.90
11961;DHT22;6040;49.358;11.140;2022-07-22T03:59:36;15.30;99.90
11961;DHT22;6040;49.358;11.140;2022-07-22T04:02:03;15.30;99.90
11961;DHT22;6040;49.358;11.140;2022-07-22T04:04:30;15.30;99.90
11961;DHT22;6040;49.358;11.140;2022-07-22T04:06:57;15.30;99.90
11961;DHT22;6040;49.358;11.140;2022-07-22T04:09:24;15.40;99.90
11961;DHT22;6040;49.358;11.140;2022-07-22T04:11:52;15.40;99.90
11961;DHT22;6040;49.358;11.140;2022-07-22T04:14:19;15.40;99.90
11961;DHT22;6040;49.358;11.140;2022-07-22T04:16:46;15.50;99.90
11961;DHT22;6040;49.358;11.140;2022-07-22T04:19:13;15.50;99.90
11961;DHT22;6040;49.358;11.140;2022-07-22T04:21:41;15.50;99.90
11961;DHT22;6040;49.358;11.140;2022-07-22T04:24:08;15.50;99.90
11961;DHT22;6040;49.358;11.140;2022-07-22T04:26:35;15.60;99.90
11961;DHT22;6040;49.358;11.140;2022-07-22T04:29:04;15.60;99.90
11961;DHT22;6040;49.358;11.140;2022-07-22T04:31:31;15.60;99.90
11961;DHT22;6040;49.358;11.140;2022-07-22T04:33:58;13.90;99.90
11961;DHT22;6040;49.358;11.140;2022-07-22T04:36:25;15.70;99.90
11961;DHT22;6040;49.358;11.140;2022-07-22T04:38:52;15.70;99.90
11961;DHT22;6040;49.358;11.140;2022-07-22T04:41:19;15.80;99.90
11961;DHT22;6040;49.358;11.140;2022-07-22T04:43:46;15.90;99.90
11961;DHT22;6040;49.358;11.140;2022-07-22T04:46:15;16.00;99.90
11961;DHT22;6040;49.358;11.140;2022-07-22T04:48:41;16.00;99.90
11961;DHT22;6040;49.358;11.140;2022-07-22T04:51:08;16.00;99.90
11961;DHT22;6040;49.358;11.140;2022-07-22T04:53:35;16.00;99.90
11961;DHT22;6040;49.358;11.140;2022-07-22T04:56:02;16.10;99.90
11961;DHT22;6040;49.358;11.140;2022-07-22T04:58:29;16.10;99.90
11961;DHT22;6040;49.358;11.140;2022-07-22T05:00:56;16.20;99.90
11961;DHT22;6040;49.358;11.140;2022-07-22T05:03:24;16.20;99.90
11961;DHT22;6040;49.358;11.140;2022-07-22T05:05:51;16.30;99.90
11961;DHT22;6040;49.358;11.140;2022-07-22T05:08:18;16.30;99.90
11961;DHT22;6040;49.358;11.140;2022-07-22T05:10:45;16.40;99.90
11961;DHT22;6040;49.358;11.140;2022-07-22T05:13:12;16.50;99.90
11961;DHT22;6040;49.358;11.140;2022-07-22T05:15:40;16.60;99.90
11961;DHT22;6040;49.358;11.140;2022-07-22T05:18:06;16.80;99.90
11961;DHT22;6040;49.358;11.140;2022-07-22T05:20:35;16.90;99.90
11961;DHT22;6040;49.358;11.140;2022-07-22T05:23:02;17.00;99.90
11961;DHT22;6040;49.358;11.140;2022-07-22T05:25:29;17.20;99.90
11961;DHT22;6040;49.358;11.140;2022-07-22T05:27:56;17.40;99.90
11961;DHT22;6040;49.358;11.140;2022-07-22T05:30:23;17.60;99.90
11961;DHT22;6040;49.358;11.140;2022-07-22T05:32:50;17.90;99.90
11961;DHT22;6040;49.358;11.140;2022-07-22T05:35:18;18.80;99.90
11961;DHT22;6040;49.358;11.140;2022-07-22T05:37:46;20.30;99.50
11961;DHT22;6040;49.358;11.140;2022-07-22T05:40:13;21.90;96.70
11961;DHT22;6040;49.358;11.140;2022-07-22T05:42:40;23.30;93.30
11961;DHT22;6040;49.358;11.140;2022-07-22T05:45:08;24.30;91.20
11961;DHT22;6040;49.358;11.140;2022-07-22T05:47:35;25.30;88.70
11961;DHT22;6040;49.358;11.140;2022-07-22T05:50:02;26.00;85.90
11961;DHT22;6040;49.358;11.140;2022-07-22T05:52:29;26.90;83.20
11961;DHT22;6040;49.358;11.140;2022-07-22T05:54:59;27.40;80.00
11961;DHT22;6040;49.358;11.140;2022-07-22T05:57:26;28.00;78.60
11961;DHT22;6040;49.358;11.140;2022-07-22T05:59:53;28.40;77.00
11961;DHT22;6040;49.358;11.140;2022-07-22T06:02:20;28.80;75.10
11961;DHT22;6040;49.358;11.140;2022-07-22T06:04:47;29.30;74.80
11961;DHT22;6040;49.358;11.140;2022-07-22T06:07:14;29.90;72.70
11961;DHT22;6040;49.358;11.140;2022-07-22T06:09:40;30.10;70.60
11961;DHT22;6040;49.358;11.140;2022-07-22T06:12:09;30.70;70.40
11961;DHT22;6040;49.358;11.140;2022-07-22T06:14:36;31.10;67.80
11961;DHT22;6040;49.358;11.140;2022-07-22T06:17:03;31.20;67.60
11961;DHT22;6040;49.358;11.140;2022-07-22T06:19:30;31.50;66.60
11961;DHT22;6040;49.358;11.140;2022-07-22T06:21:58;31.50;66.40
11961;DHT22;6040;49.358;11.140;2022-07-22T06:24:24;31.90;67.50
11961;DHT22;6040;49.358;11.140;2022-07-22T06:26:51;32.10;65.40
11961;DHT22;6040;49.358;11.140;2022-07-22T06:29:20;31.60;66.30
11961;DHT22;6040;49.358;11.140;2022-07-22T06:31:47;31.40;68.60
11961;DHT22;6040;49.358;11.140;2022-07-22T06:34:14;31.50;68.80
11961;DHT22;6040;49.358;11.140;2022-07-22T06:36:40;31.20;68.30
11961;DHT22;6040;49.358;11.140;2022-07-22T06:39:07;30.60;69.10
11961;DHT22;6040;49.358;11.140;2022-07-22T06:41:34;29.90;73.60
11961;DHT22;6040;49.358;11.140;2022-07-22T06:44:01;29.60;75.20
11961;DHT22;6040;49.358;11.140;2022-07-22T06:46:29;29.50;74.60
11961;DHT22;6040;49.358;11.140;2022-07-22T06:48:56;29.40;74.20
11961;DHT22;6040;49.358;11.140;2022-07-22T06:51:23;29.40;75.80
11961;DHT22;6040;49.358;11.140;2022-07-22T06:53:50;29.60;76.50
11961;DHT22;6040;49.358;11.140;2022-07-22T06:56:17;29.70;76.10
11961;DHT22;6040;49.358;11.140;2022-07-22T06:58:43;30.00;75.80
11961;DHT22;6040;49.358;11.140;2022-07-22T07:01:10;30.30;75.30
11961;DHT22;6040;49.358;11.140;2022-07-22T07:03:39;30.60;73.70
11961;DHT22;6040;49.358;11.140;2022-07-22T07:06:07;30.80;73.00
11961;DHT22;6040;49.358;11.140;2022-07-22T07:08:34;30.70;73.60
11961;DHT22;6040;49.358;11.140;2022-07-22T07:11:01;30.90;72.40
11961;DHT22;6040;49.358;11.140;2022-07-22T07:13:28;31.20;72.20
11961;DHT22;6040;49.358;11.140;2022-07-22T07:15:55;31.40;71.60
11961;DHT22;6040;49.358;11.140;2022-07-22T07:18:22;31.50;70.90
11961;DHT22;6040;49.358;11.140;2022-07-22T07:20:50;31.70;71.10
11961;DHT22;6040;49.358;11.140;2022-07-22T07:23:17;31.90;69.90
11961;DHT22;6040;49.358;11.140;2022-07-22T07:25:44;32.00;69.40
11961;DHT22;6040;49.358;11.140;2022-07-22T07:28:11;32.20;69.80
11961;DHT22;6040;49.358;11.140;2022-07-22T07:30:38;32.40;68.90
11961;DHT22;6040;49.358;11.140;2022-07-22T07:33:05;32.40;68.50
11961;DHT22;6040;49.358;11.140;2022-07-22T07:35:31;32.30;67.00
11961;DHT22;6040;49.358;11.140;2022-07-22T07:38:00;32.40;68.80
11961;DHT22;6040;49.358;11.140;2022-07-22T07:40:27;32.50;68.60
11961;DHT22;6040;49.358;11.140;2022-07-22T07:42:53;32.80;67.80
11961;DHT22;6040;49.358;11.140;2022-07-22T07:45:20;33.00;67.30
11961;DHT22;6040;49.358;11.140;2022-07-22T07:47:47;33.00;66.50
11961;DHT22;6040;49.358;11.140;2022-07-22T07:50:14;33.20;67.00
11961;DHT22;6040;49.358;11.140;2022-07-22T07:52:43;33.40;66.80
11961;DHT22;6040;49.358;11.140;2022-07-22T07:55:11;33.70;65.50
11961;DHT22;6040;49.358;11.140;2022-07-22T07:57:39;33.90;66.60
11961;DHT22;6040;49.358;11.140;2022-07-22T08:00:09;34.00;64.90
11961;DHT22;6040;49.358;11.140;2022-07-22T08:02:36;34.20;64.30
11961;DHT22;6040;49.358;11.140;2022-07-22T08:05:04;34.30;64.00
11961;DHT22;6040;49.358;11.140;2022-07-22T08:07:31;34.40;63.30
11961;DHT22;6040;49.358;11.140;2022-07-22T08:09:58;34.50;63.40
11961;DHT22;6040;49.358;11.140;2022-07-22T08:12:26;34.70;63.20
11961;DHT22;6040;49.358;11.140;2022-07-22T08:14:53;34.70;62.20
11961;DHT22;6040;49.358;11.140;2022-07-22T08:17:20;34.80;61.70
11961;DHT22;6040;49.358;11.140;2022-07-22T08:19:47;34.90;61.40
11961;DHT22;6040;49.358;11.140;2022-07-22T08:22:14;34.90;61.80
11961;DHT22;6040;49.358;11.140;2022-07-22T08:24:40;35.00;61.30
11961;DHT22;6040;49.358;11.140;2022-07-22T08:27:07;34.80;61.10
11961;DHT22;6040;49.358;11.140;2022-07-22T08:29:36;34.70;61.10
11961;DHT22;6040;49.358;11.140;2022-07-22T08:32:03;34.90;60.90
11961;DHT22;6040;49.358;11.140;2022-07-22T08:34:30;35.00;60.20
11961;DHT22;6040;49.358;11.140;2022-07-22T08:36:57;34.80;60.30
11961;DHT22;6040;49.358;11.140;2022-07-22T08:39:24;34.60;59.60
11961;DHT22;6040;49.358;11.140;2022-07-22T08:41:51;34.40;60.00
11961;DHT22;6040;49.358;11.140;2022-07-22T08:44:18;34.40;61.20
11961;DHT22;6040;49.358;11.140;2022-07-22T08:46:46;34.40;60.10
11961;DHT22;6040;49.358;11.140;2022-07-22T08:49:13;34.40;59.80
11961;DHT22;6040;49.358;11.140;2022-07-22T08:51:40;34.20;59.30
11961;DHT22;6040;49.358;11.140;2022-07-22T08:54:08;34.00;61.70
11961;DHT22;6040;49.358;11.140;2022-07-22T08:56:35;34.10;61.60
11961;DHT22;6040;49.358;11.140;2022-07-22T08:59:03;34.60;61.60
11961;DHT22;6040;49.358;11.140;2022-07-22T09:01:30;35.10;61.10
11961;DHT22;6040;49.358;11.140;2022-07-22T09:03:59;35.50;59.40
11961;DHT22;6040;49.358;11.140;2022-07-22T09:06:27;35.70;59.20
11961;DHT22;6040;49.358;11.140;2022-07-22T09:09:00;36.00;56.40
11961;DHT22;6040;49.358;11.140;2022-07-22T09:11:29;35.80;57.50
11961;DHT22;6040;49.358;11.140;2022-07-22T09:13:57;35.80;57.20
11961;DHT22;6040;49.358;11.140;2022-07-22T09:16:42;35.60;57.40
11961;DHT22;6040;49.358;11.140;2022-07-22T09:19:11;35.60;56.00
11961;DHT22;6040;49.358;11.140;2022-07-22T09:21:40;35.60;57.40
11961;DHT22;6040;49.358;11.140;2022-07-22T09:24:07;36.00;56.90
11961;DHT22;6040;49.358;11.140;2022-07-22T09:26:36;36.30;56.60
11961;DHT22;6040;49.358;11.140;2022-07-22T09:29:04;36.00;55.50
11961;DHT22;6040;49.358;11.140;2022-07-22T09:31:32;35.80;57.10
11961;DHT22;6040;49.358;11.140;2022-07-22T09:34:00;36.10;56.90
11961;DHT22;6040;49.358;11.140;2022-07-22T09:36:28;36.50;56.70
11961;DHT22;6040;49.358;11.140;2022-07-22T09:38:56;36.90;55.50
11961;DHT22;6040;49.358;11.140;2022-07-22T09:41:23;37.30;55.00
11961;DHT22;6040;49.358;11.140;2022-07-22T09:43:50;37.60;53.80
11961;DHT22;6040;49.358;11.140;2022-07-22T09:46:17;37.90;54.10
11961;DHT22;6040;49.358;11.140;2022-07-22T09:48:59;38.10;53.00
11961;DHT22;6040;49.358;11.140;2022-07-22T09:51:27;38.30;51.60
11961;DHT22;6040;49.358;11.140;2022-07-22T09:53:54;37.90;51.70
11961;DHT22;6040;49.358;11.140;2022-07-22T09:56:23;37.60;51.90
11961;DHT22;6040;49.358;11.140;2022-07-22T09:58:50;38.10;51.30
11961;DHT22;6040;49.358;11.140;2022-07-22T10:01:17;38.40;50.70
11961;DHT22;6040;49.358;11.140;2022-07-22T10:03:48;38.00;50.40
11961;DHT22;6040;49.358;11.140;2022-07-22T10:06:17;37.90;50.40
11961;DHT22;6040;49.358;11.140;2022-07-22T10:08:45;37.70;50.00
11961;DHT22;6040;49.358;11.140;2022-07-22T10:11:12;37.80;49.90
11961;DHT22;6040;49.358;11.140;2022-07-22T10:13:39;38.00;50.90
11961;DHT22;6040;49.358;11.140;2022-07-22T10:16:07;38.20;50.60
11961;DHT22;6040;49.358;11.140;2022-07-22T10:18:35;37.90;50.30
11961;DHT22;6040;49.358;11.140;2022-07-22T10:21:04;37.50;50.90
11961;DHT22;6040;49.358;11.140;2022-07-22T10:23:32;37.30;51.90
11961;DHT22;6040;49.358;11.140;2022-07-22T10:26:02;37.40;50.90
11961;DHT22;6040;49.358;11.140;2022-07-22T10:28:30;37.30;51.90
11961;DHT22;6040;49.358;11.140;2022-07-22T10:31:17;37.30;51.70
11961;DHT22;6040;49.358;11.140;2022-07-22T10:33:49;37.50;51.50
11961;DHT22;6040;49.358;11.140;2022-07-22T10:36:30;37.80;52.60
11961;DHT22;6040;49.358;11.140;2022-07-22T10:39:06;38.10;52.00
11961;DHT22;6040;49.358;11.140;2022-07-22T10:41:37;38.20;51.50
11961;DHT22;6040;49.358;11.140;2022-07-22T10:44:04;38.20;50.70
11961;DHT22;6040;49.358;11.140;2022-07-22T10:46:51;37.70;50.90
11961;DHT22;6040;49.358;11.140;2022-07-22T10:49:19;37.10;50.60
11961;DHT22;6040;49.358;11.140;2022-07-22T10:52:16;36.90;51.50
11961;DHT22;6040;49.358;11.140;2022-07-22T10:55:20;37.30;51.80
11961;DHT22;6040;49.358;11.140;2022-07-22T10:57:48;37.70;51.70
11961;DHT22;6040;49.358;11.140;2022-07-22T11:00:15;38.10;51.00
11961;DHT22;6040;49.358;11.140;2022-07-22T11:02:43;37.90;49.30
11961;DHT22;6040;49.358;11.140;2022-07-22T11:05:10;37.50;49.50
11961;DHT22;6040;49.358;11.140;2022-07-22T11:07:41;37.20;49.80
11961;DHT22;6040;49.358;11.140;2022-07-22T11:10:10;36.80;51.30
11961;DHT22;6040;49.358;11.140;2022-07-22T11:12:37;37.00;52.00
11961;DHT22;6040;49.358;11.140;2022-07-22T11:15:06;37.40;52.20
11961;DHT22;6040;49.358;11.140;2022-07-22T11:17:34;37.60;50.40
11961;DHT22;6040;49.358;11.140;2022-07-22T11:20:02;37.50;49.70
11961;DHT22;6040;49.358;11.140;2022-07-22T11:22:30;37.20;51.70
11961;DHT22;6040;49.358;11.140;2022-07-22T11:24:57;37.20;51.80
11961;DHT22;6040;49.358;11.140;2022-07-22T11:27:24;37.40;50.80
11961;DHT22;6040;49.358;11.140;2022-07-22T11:29:53;37.70;50.70
11961;DHT22;6040;49.358;11.140;2022-07-22T11:32:24;37.70;50.00
11961;DHT22;6040;49.358;11.140;2022-07-22T11:34:51;38.10;50.90
11961;DHT22;6040;49.358;11.140;2022-07-22T11:37:20;38.50;49.80
11961;DHT22;6040;49.358;11.140;2022-07-22T11:39:48;38.70;49.90
11961;DHT22;6040;49.358;11.140;2022-07-22T11:42:16;39.00;49.30
11961;DHT22;6040;49.358;11.140;2022-07-22T11:44:43;38.80;48.70
11961;DHT22;6040;49.358;11.140;2022-07-22T11:47:10;38.80;48.50
11961;DHT22;6040;49.358;11.140;2022-07-22T11:49:39;39.00;48.60
11961;DHT22;6040;49.358;11.140;2022-07-22T11:52:08;39.00;48.00
11961;DHT22;6040;49.358;11.140;2022-07-22T11:54:38;39.10;48.00
11961;DHT22;6040;49.358;11.140;2022-07-22T11:57:05;39.20;47.30
11961;DHT22;6040;49.358;11.140;2022-07-22T11:59:33;39.10;47.40
11961;DHT22;6040;49.358;11.140;2022-07-22T12:02:00;39.00;48.00
11961;DHT22;6040;49.358;11.140;2022-07-22T12:04:27;38.80;47.10
11961;DHT22;6040;49.358;11.140;2022-07-22T12:06:59;38.20;47.40
11961;DHT22;6040;49.358;11.140;2022-07-22T12:09:30;38.00;48.70
11961;DHT22;6040;49.358;11.140;2022-07-22T12:11:58;37.80;48.40
11961;DHT22;6040;49.358;11.140;2022-07-22T12:14:26;37.20;48.10
11961;DHT22;6040;49.358;11.140;2022-07-22T12:16:55;36.70;49.50
11961;DHT22;6040;49.358;11.140;2022-07-22T12:19:23;36.80;49.80
11961;DHT22;6040;49.358;11.140;2022-07-22T12:21:53;36.60;50.40
11961;DHT22;6040;49.358;11.140;2022-07-22T12:24:30;36.20;49.40
11961;DHT22;6040;49.358;11.140;2022-07-22T12:26:58;35.50;50.00
11961;DHT22;6040;49.358;11.140;2022-07-22T12:29:27;35.40;51.20
11961;DHT22;6040;49.358;11.140;2022-07-22T12:31:57;35.00;51.60
11961;DHT22;6040;49.358;11.140;2022-07-22T12:34:35;35.10;52.10
11961;DHT22;6040;49.358;11.140;2022-07-22T12:37:15;35.40;52.00
11961;DHT22;6040;49.358;11.140;2022-07-22T12:39:57;36.00;51.20
11961;DHT22;6040;49.358;11.140;2022-07-22T12:42:26;36.20;50.10
11961;DHT22;6040;49.358;11.140;2022-07-22T12:44:59;36.30;50.30
11961;DHT22;6040;49.358;11.140;2022-07-22T12:47:53;36.70;50.00
11961;DHT22;6040;49.358;11.140;2022-07-22T12:50:24;37.00;50.00
11961;DHT22;6040;49.358;11.140;2022-07-22T12:52:53;37.30;49.90
11961;DHT22;6040;49.358;11.140;2022-07-22T12:55:22;37.00;48.60
11961;DHT22;6040;49.358;11.140;2022-07-22T12:57:49;36.40;49.60
11961;DHT22;6040;49.358;11.140;2022-07-22T13:00:17;36.60;50.00
11961;DHT22;6040;49.358;11.140;2022-07-22T13:02:44;36.90;50.10
11961;DHT22;6040;49.358;11.140;2022-07-22T13:05:11;37.30;49.80
11961;DHT22;6040;49.358;11.140;2022-07-22T13:07:38;37.40;48.90
11961;DHT22;6040;49.358;11.140;2022-07-22T13:10:06;37.50;48.00
11961;DHT22;6040;49.358;11.140;2022-07-22T13:12:35;37.30;48.90
11961;DHT22;6040;49.358;11.140;2022-07-22T13:15:02;37.50;49.20
11961;DHT22;6040;49.358;11.140;2022-07-22T13:17:29;37.50;47.90
11961;DHT22;6040;49.358;11.140;2022-07-22T13:19:56;37.40;48.20
11961;DHT22;6040;49.358;11.140;2022-07-22T13:22:22;37.40;49.30
11961;DHT22;6040;49.358;11.140;2022-07-22T13:24:49;37.20;48.30
11961;DHT22;6040;49.358;11.140;2022-07-22T13:27:16;37.10;48.60
11961;DHT22;6040;49.358;11.140;2022-07-22T13:29:45;36.90;48.30
11961;DHT22;6040;49.358;11.140;2022-07-22T13:32:12;37.00;49.80
11961;DHT22;6040;49.358;11.140;2022-07-22T13:34:38;36.80;48.90
11961;DHT22;6040;49.358;11.140;2022-07-22T13:37:05;36.90;49.10
11961;DHT22;6040;49.358;11.140;2022-07-22T13:39:32;36.80;49.10
11961;DHT22;6040;49.358;11.140;2022-07-22T13:41:59;36.80;48.80
11961;DHT22;6040;49.358;11.140;2022-07-22T13:44:27;36.80;48.70
11961;DHT22;6040;49.358;11.140;2022-07-22T13:46:56;36.80;48.00
11961;DHT22;6040;49.358;11.140;2022-07-22T13:49:23;36.70;47.90
11961;DHT22;6040;49.358;11.140;2022-07-22T13:51:49;36.70;47.80
11961;DHT22;6040;49.358;11.140;2022-07-22T13:54:17;36.50;48.30
11961;DHT22;6040;49.358;11.140;2022-07-22T13:56:44;36.30;48.10
11961;DHT22;6040;49.358;11.140;2022-07-22T13:59:12;36.10;49.20
11961;DHT22;6040;49.358;11.140;2022-07-22T14:01:39;36.10;49.10
11961;DHT22;6040;49.358;11.140;2022-07-22T14:04:08;36.00;49.30
11961;DHT22;6040;49.358;11.140;2022-07-22T14:06:35;36.00;48.30
11961;DHT22;6040;49.358;11.140;2022-07-22T14:09:02;35.70;49.20
11961;DHT22;6040;49.358;11.140;2022-07-22T14:11:30;35.50;50.60
11961;DHT22;6040;49.358;11.140;2022-07-22T14:13:57;35.40;50.20
11961;DHT22;6040;49.358;11.140;2022-07-22T14:16:23;35.30;50.20
11961;DHT22;6040;49.358;11.140;2022-07-22T14:19:04;35.30;50.50
11961;DHT22;6040;49.358;11.140;2022-07-22T14:21:33;35.30;50.20
11961;DHT22;6040;49.358;11.140;2022-07-22T14:24:00;35.20;49.90
11961;DHT22;6040;49.358;11.140;2022-07-22T14:26:28;35.30;50.10
11961;DHT22;6040;49.358;11.140;2022-07-22T14:28:55;35.30;49.70
11961;DHT22;6040;49.358;11.140;2022-07-22T14:31:23;35.20;50.20
11961;DHT22;6040;49.358;11.140;2022-07-22T14:33:49;35.00;48.70
11961;DHT22;6040;49.358;11.140;2022-07-22T14:36:16;34.80;50.30
11961;DHT22;6040;49.358;11.140;2022-07-22T14:38:45;34.70;49.70
11961;DHT22;6040;49.358;11.140;2022-07-22T14:41:12;34.70;49.50
11961;DHT22;6040;49.358;11.140;2022-07-22T14:43:38;34.70;50.40
11961;DHT22;6040;49.358;11.140;2022-07-22T14:46:05;34.70;49.80
11961;DHT22;6040;49.358;11.140;2022-07-22T14:48:35;34.70;49.80
11961;DHT22;6040;49.358;11.140;2022-07-22T14:51:02;34.80;49.80
11961;DHT22;6040;49.358;11.140;2022-07-22T14:53:29;34.80;48.80
11961;DHT22;6040;49.358;11.140;2022-07-22T14:55:58;34.60;48.70
11961;DHT22;6040;49.358;11.140;2022-07-22T14:58:25;34.60;49.00
11961;DHT22;6040;49.358;11.140;2022-07-22T15:00:52;34.60;49.20
11961;DHT22;6040;49.358;11.140;2022-07-22T15:03:19;34.60;49.00
11961;DHT22;6040;49.358;11.140;2022-07-22T15:05:46;34.60;48.60
11961;DHT22;6040;49.358;11.140;2022-07-22T15:08:13;34.50;48.70
11961;DHT22;6040;49.358;11.140;2022-07-22T15:10:40;34.40;49.00
11961;DHT22;6040;49.358;11.140;2022-07-22T15:13:08;34.20;49.00
11961;DHT22;6040;49.358;11.140;2022-07-22T15:15:35;34.20;50.30
11961;DHT22;6040;49.358;11.140;2022-07-22T15:18:02;34.20;50.30
11961;DHT22;6040;49.358;11.140;2022-07-22T15:20:29;34.30;49.60
11961;DHT22;6040;49.358;11.140;2022-07-22T15:22:56;34.30;49.20
11961;DHT22;6040;49.358;11.140;2022-07-22T15:25:23;34.20;49.70
11961;DHT22;6040;49.358;11.140;2022-07-22T15:27:50;34.20;50.10
11961;DHT22;6040;49.358;11.140;2022-07-22T15:30:18;34.20;49.20
11961;DHT22;6040;49.358;11.140;2022-07-22T15:32:46;34.20;49.60
11961;DHT22;6040;49.358;11.140;2022-07-22T15:35:13;34.00;49.30